Time;durP1;ratioP1;P1;durP2;ratioP2;P2;SDS_P1;SDS_P2;PMS_P1;PMS_P2;Temp;Humidity;BMP_temperature;BMP_pressure;BME280_temperature;BME280_humidity;BME280_pressure;Samples;Min_cycle;Max_cycle;Signal;HPM_P1;HPM_P2
2022/05/10 00:00:20;;;;;;;4.95;3.85;;;;;;;14.88;88.49;100989.37;4470873;32;20560;-66
2022/05/10 00:02:50;;;;;;;5.80;4.60;;;;;;;15.01;86.84;100982.91;4470625;32;20512;-66
2022/05/10 00:05:28;;;;;;;4.75;3.97;;;;;;;15.03;88.68;100987.28;4470784;32;20171;-66
2022/05/10 00:07:55;;;;;;;4.32;3.75;;;;;;;15.08;87.03;100984.53;4470668;32;20107;-66
2022/05/10 00:10:23;;;;;;;3.47;3.17;;;;;;;15.07;86.85;100985.44;4470814;32;20149;-65
2022/05/10 00:12:51;;;;;;;6.25;4.00;;;;;;;15.04;85.30;100980.19;4470516;32;20200;-66
2022/05/10 00:15:19;;;;;;;3.53;3.22;;;;;;;15.03;86.35;100983.75;4470499;32;20209;-66
2022/05/10 00:17:48;;;;;;;5.62;3.60;;;;;;;15.00;87.63;100981.16;4470765;32;20080;-66
2022/05/10 00:20:23;;;;;;;3.75;3.45;;;;;;;14.99;86.61;100976.78;4470718;32;20092;-66
2022/05/10 00:22:51;;;;;;;3.62;3.33;;;;;;;14.99;87.32;100984.72;4470491;32;20156;-66
2022/05/10 00:25:24;;;;;;;3.97;3.10;;;;;;;15.00;87.77;100979.37;4470475;32;20493;-66
2022/05/10 00:27:51;;;;;;;8.43;2.80;;;;;;;15.04;85.53;100988.16;4470440;32;20185;-66
2022/05/10 00:30:19;;;;;;;3.70;3.10;;;;;;;15.01;84.98;100977.59;4470730;32;20092;-66
2022/05/10 00:32:46;;;;;;;3.35;3.05;;;;;;;14.98;84.43;100975.00;4470497;32;20436;-66
2022/05/10 00:35:18;;;;;;;6.20;3.20;;;;;;;14.99;83.41;100974.12;4470436;32;20127;-66
2022/05/10 00:37:48;;;;;;;3.37;3.05;;;;;;;14.98;83.18;100973.25;4470584;32;20072;-66
2022/05/10 00:40:19;;;;;;;3.85;3.37;;;;;;;15.01;84.08;100966.97;4470470;32;20188;-66
2022/05/10 00:43:01;;;;;;;3.95;3.05;;;;;;;14.99;85.34;100961.72;4469862;32;20127;-66
2022/05/10 00:45:40;;;;;;;3.35;3.10;;;;;;;14.89;85.21;100953.97;4470489;32;20186;-66
2022/05/10 00:48:15;;;;;;;5.55;3.12;;;;;;;14.81;85.14;100955.00;4470464;32;20081;-66
2022/05/10 00:50:52;;;;;;;3.40;3.10;;;;;;;14.77;84.89;100952.41;4470455;32;20171;-66
2022/05/10 00:53:27;;;;;;;4.22;3.22;;;;;;;14.67;83.53;100951.75;4470308;32;20151;-66
2022/05/10 00:56:05;;;;;;;3.08;2.87;;;;;;;14.64;86.91;100943.00;4470482;32;20088;-65
2022/05/10 00:58:48;;;;;;;2.90;2.67;;;;;;;14.55;83.99;100950.19;4470388;32;20479;-66
2022/05/10 01:01:26;;;;;;;2.95;2.75;;;;;;;14.54;83.19;100952.88;4470532;32;20123;-66
2022/05/10 01:04:03;;;;;;;2.95;2.62;;;;;;;14.47;83.39;100946.78;4470373;32;21135;-66
2022/05/10 01:06:37;;;;;;;3.62;3.25;;;;;;;14.39;83.34;100950.50;4470390;32;20159;-66
2022/05/10 01:09:13;;;;;;;4.93;4.53;;;;;;;14.27;84.68;100943.62;4470357;32;20068;-66
2022/05/10 01:11:55;;;;;;;4.68;3.00;;;;;;;14.17;86.12;100940.28;4470446;32;20085;-66
2022/05/10 01:14:31;;;;;;;4.62;2.70;;;;;;;14.13;83.82;100938.56;4470302;32;20408;-66
2022/05/10 01:16:59;;;;;;;5.43;3.15;;;;;;;14.10;84.45;100941.31;4470235;32;20564;-66
2022/05/10 01:19:26;;;;;;;5.22;2.78;;;;;;;14.10;84.43;100942.19;4470069;32;20085;-66
2022/05/10 01:22:02;;;;;;;4.60;3.05;;;;;;;14.06;85.36;100931.63;4470043;32;20115;-66
2022/05/10 01:24:49;;;;;;;3.47;3.10;;;;;;;14.03;87.02;100934.38;4470484;32;20185;-66
2022/05/10 01:27:47;;;;;;;3.77;3.47;;;;;;;13.97;87.76;100934.47;4470188;32;20179;-65
2022/05/10 01:30:24;;;;;;;3.35;3.05;;;;;;;13.96;87.96;100933.59;4470322;32;20508;-66
2022/05/10 01:35:56;;;;;;;4.32;2.80;;;;;;;13.92;87.56;100931.87;4469962;32;20147;-65
2022/05/10 01:38:29;;;;;;;3.12;2.92;;;;;;;13.90;88.36;100922.22;4470056;32;20100;-66
2022/05/10 01:41:06;;;;;;;5.85;3.30;;;;;;;13.86;88.54;100930.22;4470202;32;20080;-66
2022/05/10 01:43:47;;;;;;;5.40;3.80;;;;;;;13.88;88.62;100931.03;4470165;32;20147;-66
2022/05/10 01:46:27;;;;;;;6.07;3.60;;;;;;;13.86;89.70;100932.00;4469925;32;20444;-66
2022/05/10 01:49:12;;;;;;;4.45;3.58;;;;;;;13.82;90.75;100925.88;4470003;32;20122;-66
2022/05/10 01:51:59;;;;;;;4.95;4.45;;;;;;;13.92;89.61;100920.41;4469974;32;20115;-66
2022/05/10 01:54:38;;;;;;;5.22;3.50;;;;;;;13.86;91.38;100922.25;4453846;32;20816;-66
2022/05/10 01:57:15;;;;;;;3.70;3.42;;;;;;;13.88;90.40;100914.28;4469927;32;20137;-66
2022/05/10 01:59:53;;;;;;;4.57;3.85;;;;;;;13.86;90.91;100922.25;4469970;32;20123;-66
2022/05/10 02:02:25;;;;;;;3.85;3.53;;;;;;;13.88;90.42;100917.78;4469950;32;20490;-66
2022/05/10 02:05:00;;;;;;;4.55;3.85;;;;;;;13.96;89.13;100914.19;4455689;32;20088;-66
2022/05/10 02:07:30;;;;;;;7.50;3.37;;;;;;;13.91;91.85;100914.22;4469841;32;20115;-66
2022/05/10 02:10:14;;;;;;;6.12;3.55;;;;;;;13.86;89.59;100916.97;4470077;32;20423;-66
2022/05/10 02:12:52;;;;;;;3.87;3.58;;;;;;;13.88;89.67;100922.22;4469701;32;20080;-66
2022/05/10 02:15:35;;;;;;;3.78;3.40;;;;;;;13.76;90.42;100918.00;4469802;32;20130;-66
2022/05/10 02:18:18;;;;;;;5.47;3.05;;;;;;;13.73;90.02;100920.72;4469702;32;20100;-66
2022/05/10 02:21:01;;;;;;;3.75;3.30;;;;;;;13.84;87.88;100908.16;4469805;32;20171;-66
2022/05/10 02:23:55;;;;;;;3.87;3.55;;;;;;;13.91;86.61;100913.34;4469741;32;20080;-66
2022/05/10 02:26:31;;;;;;;5.93;3.67;;;;;;;13.85;86.41;100912.56;4469584;32;20084;-66
2022/05/10 02:29:16;;;;;;;3.92;3.47;;;;;;;13.75;88.32;100916.28;4469680;32;20096;-66
2022/05/10 02:34:51;;;;;;;4.22;3.08;;;;;;;13.41;88.56;100913.28;4469439;32;20409;-66
2022/05/10 02:37:18;;;;;;;2.90;2.70;;;;;;;13.34;88.72;100912.50;4469493;32;20537;-66
2022/05/10 02:39:46;;;;;;;5.03;3.55;;;;;;;13.31;89.30;100907.25;4469327;32;20131;-66
2022/05/10 02:42:17;;;;;;;3.83;3.53;;;;;;;13.20;89.91;100906.50;4469331;32;20131;-66
2022/05/10 02:44:45;;;;;;;4.43;3.55;;;;;;;13.04;90.65;100904.94;4469452;32;20151;-66
2022/05/10 02:47:12;;;;;;;4.18;2.90;;;;;;;12.88;93.32;100902.50;4469498;32;20123;-66
2022/05/10 02:49:40;;;;;;;3.30;3.00;;;;;;;12.86;92.80;100908.72;4469261;32;20557;-66
2022/05/10 02:52:08;;;;;;;5.90;3.05;;;;;;;12.84;91.28;100895.53;4469490;32;20084;-66
2022/05/10 02:54:35;;;;;;;4.72;3.35;;;;;;;12.79;91.21;100902.66;4469088;32;20131;-66
2022/05/10 02:57:03;;;;;;;5.15;3.03;;;;;;;12.72;91.90;100908.00;4469375;32;20425;-65
2022/05/10 02:59:36;;;;;;;11.02;3.50;;;;;;;12.64;93.12;100908.09;4469063;32;20188;-66
2022/05/10 03:02:12;;;;;;;3.75;3.40;;;;;;;12.53;94.02;100910.00;4469343;32;20116;-66
2022/05/10 03:04:49;;;;;;;3.35;3.03;;;;;;;12.54;93.03;100911.75;4469025;32;20080;-66
2022/05/10 03:07:17;;;;;;;4.95;3.08;;;;;;;12.58;92.39;100909.06;4471178;32;20099;-66
2022/05/10 03:09:44;;;;;;;4.03;3.28;;;;;;;12.56;92.36;100913.50;4470999;32;20089;-66
2022/05/10 03:12:12;;;;;;;3.72;3.42;;;;;;;12.40;93.87;100910.16;4471043;32;20168;-66
2022/05/10 03:14:39;;;;;;;4.03;3.60;;;;;;;12.33;93.50;100908.47;4470968;32;20118;-66
2022/05/10 03:17:10;;;;;;;5.85;3.70;;;;;;;12.31;93.00;100904.09;4471026;32;20527;-66
2022/05/10 03:19:42;;;;;;;4.32;3.25;;;;;;;12.25;93.37;100909.44;4471100;32;20096;-66
2022/05/10 03:22:11;;;;;;;3.72;3.00;;;;;;;12.14;94.23;100910.41;4470899;32;20195;-66
2022/05/10 03:24:38;;;;;;;4.30;3.90;;;;;;;12.07;95.02;100916.66;4470968;32;20516;-66
2022/05/10 03:27:07;;;;;;;4.65;3.92;;;;;;;12.04;96.73;100910.50;4470918;32;20486;-66
2022/05/10 03:29:36;;;;;;;7.12;3.92;;;;;;;11.96;97.98;100919.38;4470768;32;20100;-65
2022/05/10 03:32:03;;;;;;;4.28;3.95;;;;;;;11.92;97.04;100915.03;4470883;32;20107;-66
2022/05/10 03:37:16;;;;;;;7.40;4.28;;;;;;;11.96;96.79;100907.94;4471403;32;20805;-65
2022/05/10 03:39:44;;;;;;;4.00;3.47;;;;;;;11.99;97.42;100909.69;4470815;32;20096;-65
2022/05/10 03:42:17;;;;;;;4.57;4.12;;;;;;;11.98;96.98;100911.47;4470829;32;20108;-66
2022/05/10 03:44:49;;;;;;;5.05;4.28;;;;;;;12.00;96.81;100911.44;4470631;32;20514;-66
2022/05/10 03:47:18;;;;;;;9.13;4.03;;;;;;;11.99;97.27;100914.97;4470725;32;20750;-66
2022/05/10 03:49:46;;;;;;;6.60;3.97;;;;;;;12.05;96.89;100912.25;4471620;32;20084;-66
2022/05/10 03:52:14;;;;;;;4.87;4.00;;;;;;;12.11;95.83;100915.72;4471741;32;20088;-66
2022/05/10 03:54:44;;;;;;;10.32;4.57;;;;;;;12.10;95.26;100910.47;4471650;32;20400;-66
2022/05/10 03:57:12;;;;;;;13.32;4.72;;;;;;;12.11;95.48;100917.50;4471401;32;20160;-66
2022/05/10 03:59:41;;;;;;;10.23;4.35;;;;;;;12.17;95.54;100920.09;4471525;32;20093;-66
2022/05/10 04:02:10;;;;;;;6.80;4.35;;;;;;;12.29;95.14;100916.44;4470804;32;20247;-65
2022/05/10 04:04:38;;;;;;;6.75;4.95;;;;;;;12.38;95.07;100914.56;4471411;32;20097;-65
2022/05/10 04:07:06;;;;;;;7.47;5.25;;;;;;;12.52;94.86;100908.25;4471501;32;20686;-65
2022/05/10 04:09:34;;;;;;;10.98;5.22;;;;;;;12.68;95.27;100915.09;4471611;32;20093;-65
2022/05/10 04:12:03;;;;;;;10.30;5.10;;;;;;;12.82;94.42;100907.87;4471510;32;20147;-65
2022/05/10 04:14:30;;;;;;;8.98;4.30;;;;;;;12.98;93.60;100911.22;4471564;32;20154;-65
2022/05/10 04:16:57;;;;;;;7.35;4.35;;;;;;;13.12;92.14;100918.97;4470621;32;20450;-65
2022/05/10 04:19:25;;;;;;;4.75;4.20;;;;;;;13.27;90.90;100915.25;4456002;32;20104;-65
2022/05/10 04:21:52;;;;;;;5.05;4.55;;;;;;;13.44;90.73;100917.66;4468782;32;74241;-65
2022/05/10 04:24:20;;;;;;;9.90;4.62;;;;;;;13.57;89.43;100919.22;4471184;32;20557;-66
2022/05/10 04:26:48;;;;;;;7.47;4.45;;;;;;;13.74;88.27;100926.88;4471384;32;20112;-65
2022/05/10 04:29:16;;;;;;;5.35;4.57;;;;;;;13.92;87.42;100917.75;4471394;32;20096;-65
2022/05/10 04:31:43;;;;;;;9.50;4.45;;;;;;;14.09;87.50;100920.97;4471483;32;20719;-65
2022/05/10 04:34:10;;;;;;;7.80;4.28;;;;;;;14.19;85.75;100927.00;4471361;32;20079;-65
2022/05/10 04:36:37;;;;;;;9.52;4.95;;;;;;;14.35;85.20;100932.00;4471202;32;20084;-65
2022/05/10 04:39:05;;;;;;;20.05;4.25;;;;;;;14.57;83.96;100926.31;4471287;32;20498;-65
2022/05/10 04:41:37;;;;;;;7.55;4.15;;;;;;;14.72;82.56;100926.00;4471035;32;20779;-65
2022/05/10 04:44:09;;;;;;;10.38;5.15;;;;;;;14.91;82.77;100930.91;4470860;32;20099;-65
2022/05/10 04:46:39;;;;;;;11.50;5.07;;;;;;;15.09;81.87;100937.63;4470909;32;20140;-65
2022/05/10 04:49:08;;;;;;;18.40;4.68;;;;;;;15.24;81.30;100937.31;4471244;32;20096;-65
2022/05/10 04:51:36;;;;;;;10.70;4.43;;;;;;;15.43;81.24;100951.03;4471257;32;20100;-65
2022/05/10 04:54:04;;;;;;;6.25;4.57;;;;;;;15.48;80.70;100944.72;4462540;32;20194;-65
2022/05/10 04:56:31;;;;;;;10.30;4.87;;;;;;;15.69;78.38;100943.38;4465407;32;20100;-65
2022/05/10 04:58:58;;;;;;;8.68;4.68;;;;;;;15.89;79.11;100944.66;4470933;32;20131;-66
2022/05/10 05:01:29;;;;;;;4.87;4.22;;;;;;;15.98;76.23;100947.09;4455067;32;20121;-65
2022/05/10 05:03:59;;;;;;;6.53;4.45;;;;;;;16.11;77.10;100945.84;4455542;32;20080;-66
2022/05/10 05:06:28;;;;;;;11.75;4.75;;;;;;;16.25;75.27;100956.13;4455171;32;20080;-65
2022/05/10 05:08:57;;;;;;;13.90;4.35;;;;;;;16.16;74.12;100949.28;4459087;32;20423;-66
2022/05/10 05:11:24;;;;;;;6.30;4.03;;;;;;;16.28;75.93;100952.50;4454845;32;20096;-66
2022/05/10 05:13:52;;;;;;;8.68;3.55;;;;;;;16.41;76.62;100954.81;4463788;32;20208;-66
2022/05/10 05:16:20;;;;;;;7.10;3.87;;;;;;;16.56;74.01;100953.50;4470735;32;20179;-66
2022/05/10 05:18:48;;;;;;;8.88;3.70;;;;;;;16.64;71.96;100955.97;4471139;32;20613;-66
2022/05/10 05:21:16;;;;;;;14.32;4.68;;;;;;;16.86;71.19;100953.62;4460789;32;20168;-66
2022/05/10 05:23:43;;;;;;;11.10;4.07;;;;;;;17.07;70.83;100952.13;4454764;32;20120;-65
2022/05/10 05:26:11;;;;;;;7.55;4.53;;;;;;;17.23;70.58;100950.72;4454896;32;20127;-67
2022/05/10 05:28:39;;;;;;;14.00;4.87;;;;;;;17.38;70.41;100955.56;4454699;32;20097;-64
2022/05/10 05:31:08;;;;;;;7.75;4.00;;;;;;;17.50;68.12;100965.00;4454464;32;20088;-64
2022/05/10 05:33:38;;;;;;;11.80;4.50;;;;;;;17.70;67.58;100961.69;4458318;32;20087;-65
2022/05/10 05:36:06;;;;;;;8.27;4.35;;;;;;;17.85;66.86;100960.38;4456980;32;20111;-65
2022/05/10 05:38:34;;;;;;;7.22;4.35;;;;;;;17.95;66.61;100969.81;4446985;32;20586;-65
2022/05/10 05:41:03;;;;;;;7.12;3.92;;;;;;;17.92;67.49;100968.13;4455043;32;20100;-65
2022/05/10 05:43:30;;;;;;;5.50;3.80;;;;;;;17.90;67.10;100969.09;4458549;32;20115;-65
2022/05/10 05:45:57;;;;;;;6.18;3.50;;;;;;;17.99;67.04;100971.44;4470276;32;20817;-65
2022/05/10 05:48:25;;;;;;;8.75;3.25;;;;;;;18.07;67.65;100971.19;4465700;32;20150;-66
2022/05/10 05:50:52;;;;;;;7.62;3.35;;;;;;;18.22;66.11;100972.47;4454977;32;20092;-66
2022/05/10 05:53:21;;;;;;;8.80;3.17;;;;;;;18.32;64.00;100969.44;4454417;32;20700;-66
2022/05/10 05:55:48;;;;;;;3.58;2.95;;;;;;;18.32;63.68;100973.91;4454603;32;20105;-65
2022/05/10 05:58:16;;;;;;;6.62;3.10;;;;;;;18.29;63.21;100972.19;4455410;32;20161;-65
2022/05/10 06:00:43;;;;;;;4.78;2.67;;;;;;;18.34;63.85;100969.41;4453954;32;20168;-65
2022/05/10 06:03:11;;;;;;;6.20;3.10;;;;;;;18.53;62.40;100966.94;4455012;32;20163;-66
2022/05/10 06:05:38;;;;;;;5.62;2.75;;;;;;;18.58;62.09;100971.16;4454862;32;20131;-65
2022/05/10 06:08:08;;;;;;;8.10;3.17;;;;;;;18.69;61.05;100969.91;4454382;32;20127;-66
2022/05/10 06:10:38;;;;;;;7.55;2.90;;;;;;;18.78;61.32;100967.81;4454506;32;20123;-66
2022/05/10 06:13:05;;;;;;;10.98;2.90;;;;;;;18.83;60.61;100963.22;4454572;32;20080;-65
2022/05/10 06:15:33;;;;;;;4.43;2.92;;;;;;;18.86;59.22;100973.75;4454736;32;20089;-65
2022/05/10 06:18:04;;;;;;;5.70;2.75;;;;;;;18.89;59.03;100975.44;4454377;32;20166;-65
2022/05/10 06:20:31;;;;;;;14.35;3.33;;;;;;;19.01;58.94;100972.31;4453910;32;20163;-65
2022/05/10 06:22:59;;;;;;;3.90;2.80;;;;;;;19.04;58.00;100972.19;4453018;32;20100;-65
2022/05/10 06:25:27;;;;;;;7.18;2.95;;;;;;;19.16;58.47;100975.34;4453603;32;20096;-65
2022/05/10 06:27:55;;;;;;;11.50;2.92;;;;;;;19.34;58.72;100977.31;4453551;32;20182;-65
2022/05/10 06:30:24;;;;;;;10.02;3.00;;;;;;;19.38;57.30;100986.06;4453352;32;20180;-66
2022/05/10 06:32:56;;;;;;;11.07;3.45;;;;;;;19.65;56.25;100979.69;4453263;32;20164;-66
2022/05/10 06:35:23;;;;;;;11.50;3.17;;;;;;;19.84;56.72;100981.59;4453336;32;20089;-65
2022/05/10 06:40:38;;;;;;;4.95;3.08;;;;;;;20.20;54.17;100981.88;4452208;32;20088;-66
2022/05/10 06:43:06;;;;;;;4.62;2.58;;;;;;;20.37;52.73;100981.16;4453117;32;20097;-66
2022/05/10 06:45:35;;;;;;;5.28;2.72;;;;;;;20.48;51.39;100978.88;4452899;32;20145;-66
2022/05/10 06:48:04;;;;;;;4.05;2.60;;;;;;;20.62;51.21;100983.69;4453411;32;20115;-66
2022/05/10 06:50:32;;;;;;;6.62;2.35;;;;;;;20.50;50.72;100979.75;4454209;32;20108;-66
2022/05/10 06:53:00;;;;;;;10.82;2.50;;;;;;;20.38;51.28;100981.09;4454276;32;20146;-65
2022/05/10 06:55:30;;;;;;;6.40;3.05;;;;;;;20.25;51.98;100975.41;4454285;32;20108;-66
2022/05/10 06:57:58;;;;;;;3.40;2.65;;;;;;;20.24;50.47;100980.81;4454320;32;20135;-66
2022/05/10 07:00:37;;;;;;;3.58;2.50;;;;;;;20.07;50.01;100976.19;4454183;32;20130;-67
2022/05/10 07:03:10;;;;;;;7.50;3.03;;;;;;;20.15;49.25;100978.53;4454062;32;20107;-66
2022/05/10 07:05:39;;;;;;;11.60;2.47;;;;;;;20.12;47.75;100979.53;4452797;32;20818;-66
2022/05/10 07:08:07;;;;;;;3.00;2.28;;;;;;;20.04;48.80;100981.66;4454019;32;20165;-66
2022/05/10 07:10:34;;;;;;;4.53;2.55;;;;;;;20.01;50.60;100973.75;4454089;32;20156;-66
2022/05/10 07:13:01;;;;;;;5.68;2.45;;;;;;;19.92;50.43;100980.34;4454222;32;20517;-67
2022/05/10 07:15:30;;;;;;;6.15;2.60;;;;;;;19.99;50.33;100978.28;4453954;32;20097;-66
2022/05/10 07:17:57;;;;;;;6.70;3.42;;;;;;;20.14;49.63;100980.34;4453485;32;20161;-66
2022/05/10 07:20:24;;;;;;;5.18;2.87;;;;;;;20.15;48.96;100986.56;4454174;32;20100;-66
2022/05/10 07:22:51;;;;;;;3.03;2.50;;;;;;;20.15;48.65;100981.22;4453627;32;20115;-66
2022/05/10 07:25:23;;;;;;;5.07;2.80;;;;;;;19.98;49.15;100974.75;4457330;32;20092;-67
2022/05/10 07:27:50;;;;;;;3.85;2.78;;;;;;;20.15;49.31;100976.72;4462597;32;20168;-66
2022/05/10 07:30:19;;;;;;;8.43;3.12;;;;;;;20.23;48.39;100982.63;4462731;32;20146;-66
2022/05/10 07:32:47;;;;;;;9.18;3.05;;;;;;;20.41;48.07;100982.75;4467918;32;20094;-66
2022/05/10 07:35:15;;;;;;;6.03;3.05;;;;;;;20.42;49.04;100984.50;4468232;32;20104;-66
2022/05/10 07:37:43;;;;;;;8.00;3.33;;;;;;;20.38;49.40;100986.44;4468086;32;20124;-66
2022/05/10 07:40:12;;;;;;;5.82;3.00;;;;;;;20.44;48.73;100988.84;4447097;32;20113;-65
2022/05/10 07:42:41;;;;;;;3.80;2.58;;;;;;;20.55;49.63;100992.91;4452641;32;20523;-67
2022/05/10 07:45:10;;;;;;;5.68;2.92;;;;;;;20.76;49.30;100986.59;4452663;32;20126;-66
2022/05/10 07:47:43;;;;;;;20.80;4.00;;;;;;;20.91;48.93;100987.72;4452601;32;20097;-67
2022/05/10 07:50:18;;;;;;;16.62;3.28;;;;;;;21.04;51.50;100985.38;4453006;32;20113;-67
2022/05/10 07:52:45;;;;;;;13.62;2.97;;;;;;;21.18;50.84;100980.25;4453488;32;20092;-66
2022/05/10 07:55:13;;;;;;;4.60;2.78;;;;;;;21.21;49.25;100985.47;4454880;32;20100;-67
2022/05/10 07:57:43;;;;;;;6.12;2.92;;;;;;;21.34;48.48;100983.97;4454026;32;20164;-66
2022/05/10 08:00:13;;;;;;;23.45;3.83;;;;;;;21.30;47.88;100990.38;4454839;32;20180;-66
2022/05/10 08:02:43;;;;;;;6.22;2.58;;;;;;;21.36;48.42;100989.25;4455423;32;20092;-66
2022/05/10 08:05:18;;;;;;;4.40;3.10;;;;;;;21.43;46.97;100990.72;4455172;32;20097;-66
2022/05/10 08:07:45;;;;;;;10.45;2.90;;;;;;;21.37;47.57;100983.81;4455229;32;20128;-67
2022/05/10 08:10:14;;;;;;;6.50;4.47;;;;;;;21.34;45.25;100983.09;4455683;32;20127;-67
2022/05/10 08:12:41;;;;;;;3.17;2.78;;;;;;;21.46;45.48;100987.88;4455768;32;20149;-66
2022/05/10 08:15:10;;;;;;;5.35;2.80;;;;;;;21.40;45.05;100982.81;4455641;32;20085;-66
2022/05/10 08:17:38;;;;;;;6.28;2.60;;;;;;;20.91;45.38;100990.41;4455507;32;20112;-66
2022/05/10 08:20:06;;;;;;;7.35;2.62;;;;;;;20.91;45.59;100983.22;4455228;32;20173;-66
2022/05/10 08:22:34;;;;;;;9.00;2.75;;;;;;;20.99;46.53;100978.41;4454117;32;20150;-66
2022/05/10 08:25:01;;;;;;;7.55;2.65;;;;;;;21.15;45.44;100972.34;4454300;32;20150;-65
2022/05/10 08:27:29;;;;;;;5.95;2.42;;;;;;;21.00;45.35;100974.78;4454070;32;20441;-66
2022/05/10 08:29:56;;;;;;;6.20;3.15;;;;;;;21.35;47.20;100974.12;4454061;32;20123;-66
2022/05/10 08:32:25;;;;;;;10.73;3.10;;;;;;;21.38;44.31;100974.00;4454394;32;20104;-66
2022/05/10 08:34:52;;;;;;;6.90;2.53;;;;;;;21.53;44.26;100977.75;4454524;32;20766;-66
2022/05/10 08:37:19;;;;;;;4.85;2.55;;;;;;;21.91;44.13;100968.69;4455276;32;20890;-66
2022/05/10 08:39:46;;;;;;;6.15;2.65;;;;;;;22.11;45.32;100972.19;4460660;32;20206;-65
2022/05/10 08:42:25;;;;;;;5.32;2.30;;;;;;;22.36;44.29;100974.50;4470669;32;20067;-66
2022/05/10 08:45:03;;;;;;;8.73;3.25;;;;;;;22.61;42.09;100969.59;4471187;32;20103;-66
2022/05/10 08:47:31;;;;;;;46.13;3.37;;;;;;;22.82;45.40;100972.09;4456052;32;20108;-66
2022/05/10 08:50:01;;;;;;;7.28;2.80;;;;;;;23.00;41.75;100970.25;4454588;32;20153;-66
2022/05/10 08:52:52;;;;;;;6.65;2.60;;;;;;;23.07;40.03;100971.66;4454740;32;20092;-67
2022/05/10 08:55:28;;;;;;;8.03;2.30;;;;;;;23.18;40.17;100963.91;4457056;32;20188;-66
2022/05/10 08:58:01;;;;;;;7.82;2.35;;;;;;;23.34;40.43;100963.91;4461484;32;20108;-67
2022/05/10 09:00:40;;;;;;;3.17;2.33;;;;;;;23.35;41.24;100958.44;4459368;32;20132;-67
2022/05/10 09:03:38;;;;;;;3.87;2.85;;;;;;;23.68;41.08;100968.28;4463031;32;20149;-67
2022/05/10 09:06:31;;;;;;;10.52;3.10;;;;;;;23.29;40.55;100964.19;4455518;32;20130;-67
2022/05/10 09:09:07;;;;;;;2.67;2.47;;;;;;;22.83;41.18;100961.28;4453215;32;20097;-67
2022/05/10 09:12:18;;;;;;;16.83;3.17;;;;;;;22.73;40.72;100960.03;4470892;32;20591;-66
2022/05/10 09:14:55;;;;;;;6.20;2.35;;;;;;;23.07;39.75;100961.78;4470998;32;20080;-67
2022/05/10 09:17:25;;;;;;;10.13;2.20;;;;;;;22.56;38.58;100952.88;4468407;32;20887;-66
2022/05/10 09:19:52;;;;;;;7.40;2.65;;;;;;;22.77;39.86;100950.00;4454805;32;20166;-67
2022/05/10 09:22:43;;;;;;;19.27;2.50;;;;;;;22.83;38.85;100952.37;4454653;32;20200;-66
2022/05/10 09:25:24;;;;;;;12.48;2.60;;;;;;;23.56;39.59;100945.59;4454560;32;20107;-66
2022/05/10 09:27:53;;;;;;;12.98;2.75;;;;;;;23.91;38.15;100950.78;4454730;32;20104;-67
2022/05/10 09:30:27;;;;;;;22.30;3.50;;;;;;;24.17;37.83;100948.38;4454853;32;20123;-66
2022/05/10 09:36:10;;;;;;;7.85;3.15;;;;;;;24.17;38.95;100943.91;4465894;32;20816;-67
2022/05/10 09:38:46;;;;;;;9.65;3.37;;;;;;;24.13;39.50;100949.53;4469836;32;20101;-67
2022/05/10 09:41:32;;;;;;;4.50;3.28;;;;;;;24.20;39.70;100949.06;4470108;32;20155;-67
2022/05/10 09:44:19;;;;;;;4.37;2.80;;;;;;;23.98;39.27;100951.31;4469981;32;20084;-66
2022/05/10 09:46:46;;;;;;;10.25;3.42;;;;;;;23.82;39.27;100949.53;4456762;32;20088;-67
2022/05/10 09:49:30;;;;;;;6.55;2.72;;;;;;;24.21;39.06;100944.56;4464413;32;20254;-66
2022/05/10 09:51:59;;;;;;;5.22;3.03;;;;;;;24.36;38.54;100940.94;4469905;32;20085;-67
2022/05/10 09:54:41;;;;;;;3.03;2.40;;;;;;;24.18;39.06;100942.94;4469951;32;20092;-68
2022/05/10 09:57:24;;;;;;;6.72;2.72;;;;;;;25.00;38.32;100930.72;4470122;32;20083;-68
2022/05/10 09:59:52;;;;;;;10.15;3.58;;;;;;;25.46;36.95;100936.75;4468179;32;20085;-67
2022/05/10 10:02:29;;;;;;;8.00;3.08;;;;;;;24.48;37.71;100936.66;4469232;32;20155;-67
2022/05/10 10:04:58;;;;;;;4.37;2.90;;;;;;;24.80;38.34;100932.84;4469193;32;20122;-67
2022/05/10 10:07:28;;;;;;;5.12;2.92;;;;;;;25.22;37.51;100928.41;4469200;32;20076;-67
2022/05/10 10:10:17;;;;;;;5.05;3.10;;;;;;;25.06;36.18;100926.78;4469262;32;20096;-68
2022/05/10 10:12:45;;;;;;;4.32;3.40;;;;;;;24.86;37.39;100931.59;4457215;32;20168;-67
2022/05/10 10:15:24;;;;;;;5.25;3.25;;;;;;;24.39;37.63;100931.81;4453587;32;20216;-67
2022/05/10 10:17:58;;;;;;;8.45;3.40;;;;;;;24.27;37.68;100915.44;4454957;32;20068;-67
2022/05/10 10:20:48;;;;;;;3.65;3.10;;;;;;;24.89;36.79;100906.28;4454605;32;20089;-67
2022/05/10 10:23:44;;;;;;;9.55;3.65;;;;;;;24.96;37.87;100905.78;4454366;32;20113;-67
2022/05/10 10:26:17;;;;;;;11.07;3.92;;;;;;;25.63;36.11;100903.25;4454401;32;20104;-67
2022/05/10 10:29:09;;;;;;;9.85;3.22;;;;;;;25.73;35.82;100904.38;4454493;32;20135;-68
2022/05/10 10:31:42;;;;;;;8.70;2.97;;;;;;;26.27;34.79;100891.78;4454753;32;20727;-67
2022/05/10 10:34:33;;;;;;;15.77;3.60;;;;;;;25.97;35.35;100901.00;4452412;32;20127;-67
2022/05/10 10:37:06;;;;;;;5.05;2.95;;;;;;;25.43;36.54;100895.63;4464758;32;20526;-67
2022/05/10 10:39:48;;;;;;;8.18;2.87;;;;;;;26.09;35.87;100892.09;4469753;32;20091;-67
2022/05/10 10:42:29;;;;;;;3.10;2.83;;;;;;;26.01;36.26;100888.16;4469725;32;20092;-67
2022/05/10 10:44:58;;;;;;;4.00;3.03;;;;;;;25.28;37.03;100884.00;4469632;32;20161;-67
2022/05/10 10:47:50;;;;;;;4.35;3.33;;;;;;;25.34;35.61;100871.97;4469070;32;20433;-68
2022/05/10 10:50:32;;;;;;;7.53;3.45;;;;;;;25.97;34.12;100876.72;4453403;32;20104;-66
2022/05/10 10:53:01;;;;;;;5.45;2.85;;;;;;;24.99;35.99;100869.69;4453534;32;20147;-67
2022/05/10 10:55:48;;;;;;;13.38;2.97;;;;;;;25.06;35.35;100871.03;4454078;32;20097;-67
2022/05/10 10:58:24;;;;;;;4.75;2.67;;;;;;;26.01;34.64;100861.16;4454163;32;20169;-66
2022/05/10 11:01:00;;;;;;;10.15;3.40;;;;;;;26.78;32.73;100864.75;4454017;32;20733;-65
2022/05/10 11:03:45;;;;;;;3.75;3.00;;;;;;;27.49;31.97;100857.75;4454023;32;20109;-65
2022/05/10 11:06:18;;;;;;;5.43;3.10;;;;;;;27.39;31.38;100853.06;4453479;32;20147;-66
2022/05/10 11:09:28;;;;;;;5.93;3.03;;;;;;;27.28;32.59;100855.69;4453222;32;20475;-66
2022/05/10 11:12:01;;;;;;;4.80;3.05;;;;;;;27.51;32.53;100844.97;4467535;32;20167;-66
2022/05/10 11:14:39;;;;;;;4.12;2.92;;;;;;;27.99;30.69;100839.53;4468716;31;20135;-66
2022/05/10 11:17:35;;;;;;;3.83;3.03;;;;;;;27.72;30.92;100837.94;4463557;32;20113;-66
2022/05/10 11:20:23;;;;;;;3.45;2.50;;;;;;;27.46;31.25;100837.22;4460371;32;20112;-66
2022/05/10 11:23:03;;;;;;;4.82;3.17;;;;;;;27.89;31.58;100831.25;4460915;32;20112;-66
2022/05/10 11:25:46;;;;;;;3.05;2.83;;;;;;;27.82;30.81;100824.59;4460679;32;20134;-66
2022/05/10 11:28:52;;;;;;;11.93;3.05;;;;;;;27.92;31.07;100828.31;4453866;32;20084;-66
2022/05/10 11:31:32;;;;;;;10.93;2.62;;;;;;;28.73;28.96;100821.00;4454202;32;20084;-66
2022/05/10 11:34:05;;;;;;;7.65;3.10;;;;;;;29.82;29.12;100817.41;4461361;32;20112;-66
2022/05/10 11:36:41;;;;;;;4.25;2.10;;;;;;;30.19;28.98;100834.13;4467254;32;20125;-66
2022/05/10 11:39:18;;;;;;;4.25;2.17;;;;;;;29.00;30.44;100836.91;4465257;32;20101;-66
2022/05/10 11:42:13;;;;;;;6.22;2.03;;;;;;;27.11;33.32;100839.81;4452558;32;20100;-66
2022/05/10 11:45:08;;;;;;;5.30;1.60;;;;;;;25.37;34.07;100834.84;4458232;32;20383;-66
2022/05/10 11:48:00;;;;;;;14.45;1.85;;;;;;;24.27;36.96;100826.56;4468699;32;20117;-66
2022/05/10 11:54:22;;;;;;;2.45;1.60;;;;;;;22.74;39.18;100819.38;4454785;32;20537;-66
2022/05/10 11:56:52;;;;;;;3.17;1.83;;;;;;;21.93;41.10;100821.03;4454790;32;20104;-66
2022/05/10 11:59:36;;;;;;;3.87;1.73;;;;;;;21.30;41.87;100824.19;4455030;32;20077;-66
2022/05/10 12:02:05;;;;;;;3.03;1.92;;;;;;;20.82;43.99;100832.81;4454892;32;20204;-66
2022/05/10 12:04:41;;;;;;;9.10;1.90;;;;;;;20.49;47.64;100826.25;4454559;32;20101;-66
2022/05/10 12:07:21;;;;;;;8.55;2.58;;;;;;;20.04;52.98;100830.06;4453465;32;20114;-66
2022/05/10 12:09:51;;;;;;;3.10;1.75;;;;;;;19.44;57.85;100834.38;4461416;32;20104;-66